sensor_id;sensor_type;location;lat;lon;timestamp;P1;durP1;ratioP1;P2;durP2;ratioP2
63005;SDS011;53704;52.532;6.426;2023-10-13T00:00:56;135.07;;;49.03;;
63005;SDS011;53704;52.532;6.426;2023-10-13T00:03:24;126.45;;;50.35;;
63005;SDS011;53704;52.532;6.426;2023-10-13T00:05:57;155.77;;;53.40;;
63005;SDS011;53704;52.532;6.426;2023-10-13T00:08:27;111.38;;;46.83;;
63005;SDS011;53704;52.532;6.426;2023-10-13T00:10:54;135.23;;;52.03;;
63005;SDS011;53704;52.532;6.426;2023-10-13T00:13:25;124.28;;;50.47;;
63005;SDS011;53704;52.532;6.426;2023-10-13T00:15:51;159.40;;;54.58;;
63005;SDS011;53704;52.532;6.426;2023-10-13T00:18:26;141.05;;;51.17;;
63005;SDS011;53704;52.532;6.426;2023-10-13T00:20:58;105.68;;;45.42;;
63005;SDS011;53704;52.532;6.426;2023-10-13T00:23:24;110.20;;;47.08;;
63005;SDS011;53704;52.532;6.426;2023-10-13T00:25:52;164.38;;;50.75;;
63005;SDS011;53704;52.532;6.426;2023-10-13T00:28:27;107.47;;;47.80;;
63005;SDS011;53704;52.532;6.426;2023-10-13T00:31:00;112.78;;;44.53;;
63005;SDS011;53704;52.532;6.426;2023-10-13T00:33:38;119.93;;;45.33;;
63005;SDS011;53704;52.532;6.426;2023-10-13T00:36:07;92.22;;;44.05;;
63005;SDS011;53704;52.532;6.426;2023-10-13T00:38:34;99.22;;;42.28;;
63005;SDS011;53704;52.532;6.426;2023-10-13T00:41:02;101.22;;;45.83;;
63005;SDS011;53704;52.532;6.426;2023-10-13T00:43:45;114.13;;;44.97;;
63005;SDS011;53704;52.532;6.426;2023-10-13T00:46:29;98.28;;;45.13;;
63005;SDS011;53704;52.532;6.426;2023-10-13T00:48:59;102.25;;;41.20;;
63005;SDS011;53704;52.532;6.426;2023-10-13T00:51:26;107.70;;;44.78;;
63005;SDS011;53704;52.532;6.426;2023-10-13T00:54:03;108.47;;;41.95;;
63005;SDS011;53704;52.532;6.426;2023-10-13T00:56:37;88.57;;;41.05;;
63005;SDS011;53704;52.532;6.426;2023-10-13T00:59:30;140.00;;;44.78;;
63005;SDS011;53704;52.532;6.426;2023-10-13T01:02:06;101.30;;;40.42;;
63005;SDS011;53704;52.532;6.426;2023-10-13T01:04:50;97.30;;;40.38;;
63005;SDS011;53704;52.532;6.426;2023-10-13T01:07:16;96.00;;;38.83;;
63005;SDS011;53704;52.532;6.426;2023-10-13T01:09:42;91.63;;;37.70;;
63005;SDS011;53704;52.532;6.426;2023-10-13T01:12:08;93.60;;;40.70;;
63005;SDS011;53704;52.532;6.426;2023-10-13T01:14:33;123.40;;;43.22;;
63005;SDS011;53704;52.532;6.426;2023-10-13T01:17:00;93.97;;;39.00;;
63005;SDS011;53704;52.532;6.426;2023-10-13T01:19:26;99.30;;;38.60;;
63005;SDS011;53704;52.532;6.426;2023-10-13T01:21:53;101.78;;;38.15;;
63005;SDS011;53704;52.532;6.426;2023-10-13T01:24:32;103.50;;;39.92;;
63005;SDS011;53704;52.532;6.426;2023-10-13T01:27:01;107.25;;;38.00;;
63005;SDS011;53704;52.532;6.426;2023-10-13T01:29:44;100.22;;;37.28;;
63005;SDS011;53704;52.532;6.426;2023-10-13T01:32:21;84.35;;;37.40;;
63005;SDS011;53704;52.532;6.426;2023-10-13T01:34:47;79.13;;;36.92;;
63005;SDS011;53704;52.532;6.426;2023-10-13T01:37:14;87.93;;;35.78;;
63005;SDS011;53704;52.532;6.426;2023-10-13T01:39:44;104.25;;;36.47;;
63005;SDS011;53704;52.532;6.426;2023-10-13T01:42:14;84.82;;;33.03;;
63005;SDS011;53704;52.532;6.426;2023-10-13T01:44:47;73.03;;;33.92;;
63005;SDS011;53704;52.532;6.426;2023-10-13T01:47:13;100.00;;;36.63;;
63005;SDS011;53704;52.532;6.426;2023-10-13T01:49:39;106.63;;;36.42;;
63005;SDS011;53704;52.532;6.426;2023-10-13T01:52:09;82.10;;;33.35;;
63005;SDS011;53704;52.532;6.426;2023-10-13T01:54:40;78.47;;;34.00;;
63005;SDS011;53704;52.532;6.426;2023-10-13T01:57:07;72.10;;;34.47;;
63005;SDS011;53704;52.532;6.426;2023-10-13T01:59:33;80.90;;;31.77;;
63005;SDS011;53704;52.532;6.426;2023-10-13T02:02:03;78.18;;;33.80;;
63005;SDS011;53704;52.532;6.426;2023-10-13T02:04:30;97.45;;;34.95;;
63005;SDS011;53704;52.532;6.426;2023-10-13T02:07:07;75.32;;;33.22;;
63005;SDS011;53704;52.532;6.426;2023-10-13T02:09:33;87.57;;;34.22;;
63005;SDS011;53704;52.532;6.426;2023-10-13T02:12:02;85.40;;;33.60;;
63005;SDS011;53704;52.532;6.426;2023-10-13T02:14:27;69.22;;;34.47;;
63005;SDS011;53704;52.532;6.426;2023-10-13T02:16:53;77.93;;;32.03;;
63005;SDS011;53704;52.532;6.426;2023-10-13T02:19:37;72.28;;;31.58;;
63005;SDS011;53704;52.532;6.426;2023-10-13T02:22:05;103.53;;;35.22;;
63005;SDS011;53704;52.532;6.426;2023-10-13T02:24:33;83.18;;;32.20;;
63005;SDS011;53704;52.532;6.426;2023-10-13T02:26:59;72.93;;;32.97;;
63005;SDS011;53704;52.532;6.426;2023-10-13T02:29:29;86.25;;;35.03;;
63005;SDS011;53704;52.532;6.426;2023-10-13T02:31:55;85.75;;;34.03;;
63005;SDS011;53704;52.532;6.426;2023-10-13T02:34:21;69.05;;;32.60;;
63005;SDS011;53704;52.532;6.426;2023-10-13T02:36:48;82.93;;;34.50;;
63005;SDS011;53704;52.532;6.426;2023-10-13T02:39:14;75.25;;;32.72;;
63005;SDS011;53704;52.532;6.426;2023-10-13T02:41:50;119.05;;;38.10;;
63005;SDS011;53704;52.532;6.426;2023-10-13T02:44:16;68.97;;;32.55;;
63005;SDS011;53704;52.532;6.426;2023-10-13T02:46:56;74.63;;;31.40;;
63005;SDS011;53704;52.532;6.426;2023-10-13T02:49:24;67.57;;;32.40;;
63005;SDS011;53704;52.532;6.426;2023-10-13T02:51:52;74.30;;;33.55;;
63005;SDS011;53704;52.532;6.426;2023-10-13T02:54:18;62.72;;;32.60;;
63005;SDS011;53704;52.532;6.426;2023-10-13T02:56:44;93.88;;;38.83;;
63005;SDS011;53704;52.532;6.426;2023-10-13T02:59:22;68.80;;;32.10;;
63005;SDS011;53704;52.532;6.426;2023-10-13T03:02:00;66.95;;;30.42;;
63005;SDS011;53704;52.532;6.426;2023-10-13T03:04:32;61.30;;;32.65;;
63005;SDS011;53704;52.532;6.426;2023-10-13T03:06:58;74.45;;;32.92;;
63005;SDS011;53704;52.532;6.426;2023-10-13T03:09:24;79.55;;;33.60;;
63005;SDS011;53704;52.532;6.426;2023-10-13T03:11:50;81.03;;;34.28;;
63005;SDS011;53704;52.532;6.426;2023-10-13T03:14:22;55.03;;;30.15;;
63005;SDS011;53704;52.532;6.426;2023-10-13T03:16:52;70.97;;;33.45;;
63005;SDS011;53704;52.532;6.426;2023-10-13T03:19:18;69.25;;;31.30;;
63005;SDS011;53704;52.532;6.426;2023-10-13T03:21:44;90.03;;;33.53;;
63005;SDS011;53704;52.532;6.426;2023-10-13T03:24:19;77.85;;;33.90;;
63005;SDS011;53704;52.532;6.426;2023-10-13T03:26:48;71.38;;;31.13;;
63005;SDS011;53704;52.532;6.426;2023-10-13T03:29:17;62.97;;;31.25;;
63005;SDS011;53704;52.532;6.426;2023-10-13T03:31:46;59.28;;;31.45;;
63005;SDS011;53704;52.532;6.426;2023-10-13T03:34:20;58.47;;;31.42;;
63005;SDS011;53704;52.532;6.426;2023-10-13T03:36:45;52.72;;;31.65;;
63005;SDS011;53704;52.532;6.426;2023-10-13T03:39:23;63.10;;;31.00;;
63005;SDS011;53704;52.532;6.426;2023-10-13T03:41:56;65.13;;;28.75;;
63005;SDS011;53704;52.532;6.426;2023-10-13T03:44:22;59.17;;;29.38;;
63005;SDS011;53704;52.532;6.426;2023-10-13T03:46:48;55.38;;;28.42;;
63005;SDS011;53704;52.532;6.426;2023-10-13T03:49:15;57.83;;;27.30;;
63005;SDS011;53704;52.532;6.426;2023-10-13T03:51:45;65.13;;;29.13;;
63005;SDS011;53704;52.532;6.426;2023-10-13T03:54:12;61.17;;;29.23;;
63005;SDS011;53704;52.532;6.426;2023-10-13T03:56:41;56.63;;;27.70;;
63005;SDS011;53704;52.532;6.426;2023-10-13T03:59:09;56.55;;;27.60;;
63005;SDS011;53704;52.532;6.426;2023-10-13T04:01:43;48.10;;;26.67;;
63005;SDS011;53704;52.532;6.426;2023-10-13T04:04:16;54.83;;;26.55;;
63005;SDS011;53704;52.532;6.426;2023-10-13T04:06:58;46.35;;;24.25;;
63005;SDS011;53704;52.532;6.426;2023-10-13T04:09:30;44.85;;;24.80;;
63005;SDS011;53704;52.532;6.426;2023-10-13T04:11:56;70.00;;;25.38;;
63005;SDS011;53704;52.532;6.426;2023-10-13T04:14:44;54.65;;;24.10;;
63005;SDS011;53704;52.532;6.426;2023-10-13T04:17:10;48.35;;;24.60;;
63005;SDS011;53704;52.532;6.426;2023-10-13T04:19:50;66.32;;;25.02;;
63005;SDS011;53704;52.532;6.426;2023-10-13T04:22:38;67.30;;;24.75;;
63005;SDS011;53704;52.532;6.426;2023-10-13T04:25:23;49.47;;;23.45;;
63005;SDS011;53704;52.532;6.426;2023-10-13T04:28:00;55.47;;;24.45;;
63005;SDS011;53704;52.532;6.426;2023-10-13T04:33:25;39.58;;;21.13;;
63005;SDS011;53704;52.532;6.426;2023-10-13T04:43:49;46.00;;;21.17;;
63005;SDS011;53704;52.532;6.426;2023-10-13T04:46:21;42.88;;;21.23;;
63005;SDS011;53704;52.532;6.426;2023-10-13T04:49:22;30.45;;;19.75;;
63005;SDS011;53704;52.532;6.426;2023-10-13T04:51:55;55.13;;;21.25;;
63005;SDS011;53704;52.532;6.426;2023-10-13T04:54:27;38.78;;;19.33;;
63005;SDS011;53704;52.532;6.426;2023-10-13T04:57:17;28.33;;;19.15;;
63005;SDS011;53704;52.532;6.426;2023-10-13T05:00:03;37.28;;;19.98;;
63005;SDS011;53704;52.532;6.426;2023-10-13T05:02:40;41.10;;;20.02;;
63005;SDS011;53704;52.532;6.426;2023-10-13T05:05:20;42.60;;;19.42;;
63005;SDS011;53704;52.532;6.426;2023-10-13T05:08:04;46.50;;;19.35;;
63005;SDS011;53704;52.532;6.426;2023-10-13T05:10:49;54.42;;;20.60;;
63005;SDS011;53704;52.532;6.426;2023-10-13T05:13:33;41.97;;;17.33;;
63005;SDS011;53704;52.532;6.426;2023-10-13T05:16:17;40.45;;;18.25;;
63005;SDS011;53704;52.532;6.426;2023-10-13T05:19:01;42.10;;;17.27;;
63005;SDS011;53704;52.532;6.426;2023-10-13T05:21:44;48.65;;;17.80;;
63005;SDS011;53704;52.532;6.426;2023-10-13T05:24:28;39.67;;;17.45;;
63005;SDS011;53704;52.532;6.426;2023-10-13T05:27:13;32.78;;;15.82;;
63005;SDS011;53704;52.532;6.426;2023-10-13T05:29:57;41.55;;;16.75;;
63005;SDS011;53704;52.532;6.426;2023-10-13T05:32:41;31.63;;;15.15;;
63005;SDS011;53704;52.532;6.426;2023-10-13T05:35:24;40.00;;;16.25;;
63005;SDS011;53704;52.532;6.426;2023-10-13T05:38:09;27.85;;;14.35;;
63005;SDS011;53704;52.532;6.426;2023-10-13T05:40:53;31.88;;;14.38;;
63005;SDS011;53704;52.532;6.426;2023-10-13T05:43:41;26.40;;;14.00;;
63005;SDS011;53704;52.532;6.426;2023-10-13T05:46:25;26.60;;;13.48;;
63005;SDS011;53704;52.532;6.426;2023-10-13T05:48:54;40.42;;;13.45;;
63005;SDS011;53704;52.532;6.426;2023-10-13T05:51:22;22.85;;;12.73;;
63005;SDS011;53704;52.532;6.426;2023-10-13T05:54:00;19.95;;;11.98;;
63005;SDS011;53704;52.532;6.426;2023-10-13T05:56:38;25.25;;;12.40;;
63005;SDS011;53704;52.532;6.426;2023-10-13T05:59:22;29.90;;;11.45;;
63005;SDS011;53704;52.532;6.426;2023-10-13T06:02:06;18.48;;;10.32;;
63005;SDS011;53704;52.532;6.426;2023-10-13T06:04:50;28.58;;;9.95;;
63005;SDS011;53704;52.532;6.426;2023-10-13T06:07:35;22.80;;;10.68;;
63005;SDS011;53704;52.532;6.426;2023-10-13T06:10:19;15.60;;;9.52;;
63005;SDS011;53704;52.532;6.426;2023-10-13T06:13:03;25.60;;;9.95;;
63005;SDS011;53704;52.532;6.426;2023-10-13T06:15:47;19.40;;;10.15;;
63005;SDS011;53704;52.532;6.426;2023-10-13T06:18:30;20.10;;;9.38;;
63005;SDS011;53704;52.532;6.426;2023-10-13T06:21:14;21.95;;;10.38;;
63005;SDS011;53704;52.532;6.426;2023-10-13T06:23:59;32.30;;;12.82;;
63005;SDS011;53704;52.532;6.426;2023-10-13T06:26:42;25.83;;;11.02;;
63005;SDS011;53704;52.532;6.426;2023-10-13T06:29:27;28.55;;;12.38;;
63005;SDS011;53704;52.532;6.426;2023-10-13T06:31:52;25.50;;;12.05;;
63005;SDS011;53704;52.532;6.426;2023-10-13T06:34:22;40.35;;;12.65;;
63005;SDS011;53704;52.532;6.426;2023-10-13T06:37:03;25.20;;;13.23;;
63005;SDS011;53704;52.532;6.426;2023-10-13T06:39:47;34.63;;;13.13;;
63005;SDS011;53704;52.532;6.426;2023-10-13T06:42:13;48.95;;;13.57;;
63005;SDS011;53704;52.532;6.426;2023-10-13T06:44:40;26.70;;;12.77;;
63005;SDS011;53704;52.532;6.426;2023-10-13T06:47:10;26.88;;;11.90;;
63005;SDS011;53704;52.532;6.426;2023-10-13T06:49:36;29.27;;;10.95;;
63005;SDS011;53704;52.532;6.426;2023-10-13T06:52:04;23.75;;;9.75;;
63005;SDS011;53704;52.532;6.426;2023-10-13T06:54:32;28.23;;;10.85;;
63005;SDS011;53704;52.532;6.426;2023-10-13T06:57:02;24.80;;;9.98;;
63005;SDS011;53704;52.532;6.426;2023-10-13T06:59:31;24.15;;;9.40;;
63005;SDS011;53704;52.532;6.426;2023-10-13T07:02:00;27.95;;;9.95;;
63005;SDS011;53704;52.532;6.426;2023-10-13T07:04:34;44.67;;;10.20;;
63005;SDS011;53704;52.532;6.426;2023-10-13T07:07:05;30.30;;;10.02;;
63005;SDS011;53704;52.532;6.426;2023-10-13T07:09:36;24.98;;;9.23;;
63005;SDS011;53704;52.532;6.426;2023-10-13T07:12:02;28.17;;;9.80;;
63005;SDS011;53704;52.532;6.426;2023-10-13T07:14:31;25.30;;;9.95;;
63005;SDS011;53704;52.532;6.426;2023-10-13T07:17:02;41.22;;;9.48;;
63005;SDS011;53704;52.532;6.426;2023-10-13T07:19:30;25.92;;;9.25;;
63005;SDS011;53704;52.532;6.426;2023-10-13T07:22:00;22.02;;;9.20;;
63005;SDS011;53704;52.532;6.426;2023-10-13T07:24:46;23.58;;;8.32;;
63005;SDS011;53704;52.532;6.426;2023-10-13T07:27:18;33.55;;;8.55;;
63005;SDS011;53704;52.532;6.426;2023-10-13T07:29:49;32.13;;;8.82;;
63005;SDS011;53704;52.532;6.426;2023-10-13T07:32:21;28.55;;;8.50;;
63005;SDS011;53704;52.532;6.426;2023-10-13T07:34:52;24.25;;;8.10;;
63005;SDS011;53704;52.532;6.426;2023-10-13T07:37:21;30.85;;;8.30;;
63005;SDS011;53704;52.532;6.426;2023-10-13T07:39:50;29.83;;;8.35;;
63005;SDS011;53704;52.532;6.426;2023-10-13T07:42:16;27.20;;;8.02;;
63005;SDS011;53704;52.532;6.426;2023-10-13T07:44:44;27.27;;;7.90;;
63005;SDS011;53704;52.532;6.426;2023-10-13T07:47:12;30.20;;;8.70;;
63005;SDS011;53704;52.532;6.426;2023-10-13T07:49:39;20.52;;;8.00;;
63005;SDS011;53704;52.532;6.426;2023-10-13T07:52:09;25.92;;;8.48;;
63005;SDS011;53704;52.532;6.426;2023-10-13T07:54:45;29.98;;;8.82;;
63005;SDS011;53704;52.532;6.426;2023-10-13T07:57:20;33.60;;;9.23;;
63005;SDS011;53704;52.532;6.426;2023-10-13T07:59:54;22.20;;;8.88;;
63005;SDS011;53704;52.532;6.426;2023-10-13T08:02:31;25.63;;;8.52;;
63005;SDS011;53704;52.532;6.426;2023-10-13T08:05:13;27.23;;;9.57;;
63005;SDS011;53704;52.532;6.426;2023-10-13T08:07:49;25.95;;;8.75;;
63005;SDS011;53704;52.532;6.426;2023-10-13T08:10:15;25.08;;;9.00;;
63005;SDS011;53704;52.532;6.426;2023-10-13T08:12:41;23.60;;;9.20;;
63005;SDS011;53704;52.532;6.426;2023-10-13T08:15:09;27.60;;;10.73;;
63005;SDS011;53704;52.532;6.426;2023-10-13T08:17:46;24.92;;;11.00;;
63005;SDS011;53704;52.532;6.426;2023-10-13T08:20:11;23.98;;;10.85;;
63005;SDS011;53704;52.532;6.426;2023-10-13T08:22:41;29.73;;;11.68;;
63005;SDS011;53704;52.532;6.426;2023-10-13T08:25:12;36.90;;;11.35;;
63005;SDS011;53704;52.532;6.426;2023-10-13T08:27:46;17.60;;;11.07;;
63005;SDS011;53704;52.532;6.426;2023-10-13T08:30:30;29.08;;;11.18;;
63005;SDS011;53704;52.532;6.426;2023-10-13T08:33:19;24.98;;;9.30;;
63005;SDS011;53704;52.532;6.426;2023-10-13T08:35:49;35.92;;;10.32;;
63005;SDS011;53704;52.532;6.426;2023-10-13T08:38:41;26.98;;;9.57;;
63005;SDS011;53704;52.532;6.426;2023-10-13T08:41:16;30.60;;;9.38;;
63005;SDS011;53704;52.532;6.426;2023-10-13T08:43:44;16.27;;;8.93;;
63005;SDS011;53704;52.532;6.426;2023-10-13T08:46:15;20.83;;;9.00;;
63005;SDS011;53704;52.532;6.426;2023-10-13T08:48:55;17.95;;;9.23;;
63005;SDS011;53704;52.532;6.426;2023-10-13T08:51:43;14.55;;;8.57;;
63005;SDS011;53704;52.532;6.426;2023-10-13T08:54:14;22.55;;;9.30;;
63005;SDS011;53704;52.532;6.426;2023-10-13T08:57:06;13.32;;;7.80;;
63005;SDS011;53704;52.532;6.426;2023-10-13T08:59:45;31.27;;;8.52;;
63005;SDS011;53704;52.532;6.426;2023-10-13T09:02:23;23.23;;;8.55;;
63005;SDS011;53704;52.532;6.426;2023-10-13T09:05:08;19.60;;;7.82;;
63005;SDS011;53704;52.532;6.426;2023-10-13T09:07:55;18.15;;;8.00;;
63005;SDS011;53704;52.532;6.426;2023-10-13T09:10:24;25.55;;;8.80;;
63005;SDS011;53704;52.532;6.426;2023-10-13T09:12:58;34.05;;;9.00;;
63005;SDS011;53704;52.532;6.426;2023-10-13T09:15:28;17.02;;;8.32;;
63005;SDS011;53704;52.532;6.426;2023-10-13T09:18:24;27.05;;;8.90;;
63005;SDS011;53704;52.532;6.426;2023-10-13T09:21:08;31.33;;;8.77;;
63005;SDS011;53704;52.532;6.426;2023-10-13T09:23:52;29.13;;;8.30;;
63005;SDS011;53704;52.532;6.426;2023-10-13T09:26:38;27.75;;;7.72;;
63005;SDS011;53704;52.532;6.426;2023-10-13T09:29:13;18.10;;;7.97;;
63005;SDS011;53704;52.532;6.426;2023-10-13T09:31:39;20.67;;;7.93;;
63005;SDS011;53704;52.532;6.426;2023-10-13T09:34:10;19.77;;;7.78;;
63005;SDS011;53704;52.532;6.426;2023-10-13T09:36:39;24.67;;;8.25;;
63005;SDS011;53704;52.532;6.426;2023-10-13T09:39:05;21.75;;;8.05;;
63005;SDS011;53704;52.532;6.426;2023-10-13T09:41:39;25.17;;;6.97;;
63005;SDS011;53704;52.532;6.426;2023-10-13T09:44:05;24.80;;;7.80;;
63005;SDS011;53704;52.532;6.426;2023-10-13T09:46:33;24.13;;;8.27;;
63005;SDS011;53704;52.532;6.426;2023-10-13T09:49:10;16.58;;;7.22;;
63005;SDS011;53704;52.532;6.426;2023-10-13T09:52:09;29.50;;;8.55;;
63005;SDS011;53704;52.532;6.426;2023-10-13T09:57:15;16.38;;;7.38;;
63005;SDS011;53704;52.532;6.426;2023-10-13T09:59:50;31.95;;;8.82;;
63005;SDS011;53704;52.532;6.426;2023-10-13T10:02:31;24.40;;;7.65;;
63005;SDS011;53704;52.532;6.426;2023-10-13T10:04:59;26.08;;;7.30;;
63005;SDS011;53704;52.532;6.426;2023-10-13T10:07:37;21.48;;;8.13;;
63005;SDS011;53704;52.532;6.426;2023-10-13T10:10:09;21.70;;;7.47;;
63005;SDS011;53704;52.532;6.426;2023-10-13T10:15:31;23.58;;;9.15;;
63005;SDS011;53704;52.532;6.426;2023-10-13T10:17:59;23.10;;;8.27;;
63005;SDS011;53704;52.532;6.426;2023-10-13T10:20:36;28.50;;;8.77;;
63005;SDS011;53704;52.532;6.426;2023-10-13T10:23:28;18.23;;;7.45;;
63005;SDS011;53704;52.532;6.426;2023-10-13T10:25:55;19.77;;;7.80;;
63005;SDS011;53704;52.532;6.426;2023-10-13T10:28:49;35.47;;;7.70;;
63005;SDS011;53704;52.532;6.426;2023-10-13T10:31:19;24.23;;;7.70;;
63005;SDS011;53704;52.532;6.426;2023-10-13T10:34:10;20.60;;;7.43;;
63005;SDS011;53704;52.532;6.426;2023-10-13T10:36:40;34.35;;;8.52;;
63005;SDS011;53704;52.532;6.426;2023-10-13T10:39:33;39.50;;;7.38;;
63005;SDS011;53704;52.532;6.426;2023-10-13T10:42:12;34.22;;;8.70;;
63005;SDS011;53704;52.532;6.426;2023-10-13T10:44:42;23.70;;;7.63;;
63005;SDS011;53704;52.532;6.426;2023-10-13T10:47:13;19.98;;;7.55;;
63005;SDS011;53704;52.532;6.426;2023-10-13T10:50:03;16.38;;;7.75;;
63005;SDS011;53704;52.532;6.426;2023-10-13T10:52:52;21.58;;;6.75;;
63005;SDS011;53704;52.532;6.426;2023-10-13T10:55:25;18.25;;;6.95;;
63005;SDS011;53704;52.532;6.426;2023-10-13T10:58:02;24.05;;;6.78;;
63005;SDS011;53704;52.532;6.426;2023-10-13T11:15:03;18.77;;;8.20;;
63005;SDS011;53704;52.532;6.426;2023-10-13T11:18:01;17.60;;;8.07;;
63005;SDS011;53704;52.532;6.426;2023-10-13T11:26:37;24.67;;;7.95;;
63005;SDS011;53704;52.532;6.426;2023-10-13T11:29:15;22.65;;;8.38;;
63005;SDS011;53704;52.532;6.426;2023-10-13T11:31:44;35.35;;;8.23;;
63005;SDS011;53704;52.532;6.426;2023-10-13T11:34:23;22.73;;;8.65;;
63005;SDS011;53704;52.532;6.426;2023-10-13T11:36:50;34.83;;;8.07;;
63005;SDS011;53704;52.532;6.426;2023-10-13T11:39:18;23.65;;;7.25;;
63005;SDS011;53704;52.532;6.426;2023-10-13T11:41:55;21.58;;;8.07;;
63005;SDS011;53704;52.532;6.426;2023-10-13T11:44:21;36.90;;;7.88;;
63005;SDS011;53704;52.532;6.426;2023-10-13T11:46:51;20.73;;;7.45;;
63005;SDS011;53704;52.532;6.426;2023-10-13T11:49:21;25.42;;;7.78;;
63005;SDS011;53704;52.532;6.426;2023-10-13T11:51:53;23.15;;;8.57;;
63005;SDS011;53704;52.532;6.426;2023-10-13T11:54:35;29.40;;;8.55;;
63005;SDS011;53704;52.532;6.426;2023-10-13T11:57:07;31.23;;;8.07;;
63005;SDS011;53704;52.532;6.426;2023-10-13T11:59:32;23.10;;;7.85;;
63005;SDS011;53704;52.532;6.426;2023-10-13T12:02:01;20.65;;;8.32;;
63005;SDS011;53704;52.532;6.426;2023-10-13T12:04:36;27.58;;;7.93;;
63005;SDS011;53704;52.532;6.426;2023-10-13T12:07:17;29.55;;;6.82;;
63005;SDS011;53704;52.532;6.426;2023-10-13T12:10:05;22.40;;;8.85;;
63005;SDS011;53704;52.532;6.426;2023-10-13T12:12:40;23.80;;;7.82;;
63005;SDS011;53704;52.532;6.426;2023-10-13T12:15:08;28.92;;;8.43;;
63005;SDS011;53704;52.532;6.426;2023-10-13T12:17:38;21.33;;;7.43;;
63005;SDS011;53704;52.532;6.426;2023-10-13T12:20:10;24.60;;;8.52;;
63005;SDS011;53704;52.532;6.426;2023-10-13T12:22:46;22.48;;;8.02;;
63005;SDS011;53704;52.532;6.426;2023-10-13T12:25:20;22.55;;;7.53;;
63005;SDS011;53704;52.532;6.426;2023-10-13T12:27:58;18.10;;;7.57;;
63005;SDS011;53704;52.532;6.426;2023-10-13T12:30:38;27.73;;;8.13;;
63005;SDS011;53704;52.532;6.426;2023-10-13T12:33:19;22.65;;;8.55;;
63005;SDS011;53704;52.532;6.426;2023-10-13T12:36:06;17.23;;;7.75;;
63005;SDS011;53704;52.532;6.426;2023-10-13T12:38:34;25.38;;;7.78;;
63005;SDS011;53704;52.532;6.426;2023-10-13T13:01:49;42.97;;;8.52;;
63005;SDS011;53704;52.532;6.426;2023-10-13T13:18:50;23.13;;;7.75;;
63005;SDS011;53704;52.532;6.426;2023-10-13T13:21:25;24.50;;;7.60;;
63005;SDS011;53704;52.532;6.426;2023-10-13T13:23:52;30.77;;;8.15;;
63005;SDS011;53704;52.532;6.426;2023-10-13T13:26:27;29.92;;;7.60;;
63005;SDS011;53704;52.532;6.426;2023-10-13T13:41:25;32.08;;;8.45;;
63005;SDS011;53704;52.532;6.426;2023-10-13T13:43:51;30.60;;;7.95;;
63005;SDS011;53704;52.532;6.426;2023-10-13T13:49:42;27.38;;;8.38;;
63005;SDS011;53704;52.532;6.426;2023-10-13T13:52:16;24.00;;;8.10;;
63005;SDS011;53704;52.532;6.426;2023-10-13T13:54:46;20.75;;;7.85;;
63005;SDS011;53704;52.532;6.426;2023-10-13T13:57:12;27.58;;;7.68;;
63005;SDS011;53704;52.532;6.426;2023-10-13T13:59:38;25.17;;;8.40;;
63005;SDS011;53704;52.532;6.426;2023-10-13T14:02:04;33.67;;;8.82;;
63005;SDS011;53704;52.532;6.426;2023-10-13T14:04:44;29.38;;;8.25;;
63005;SDS011;53704;52.532;6.426;2023-10-13T14:07:12;23.90;;;8.48;;
63005;SDS011;53704;52.532;6.426;2023-10-13T14:09:40;28.17;;;8.10;;
63005;SDS011;53704;52.532;6.426;2023-10-13T14:12:09;30.48;;;7.93;;
63005;SDS011;53704;52.532;6.426;2023-10-13T14:14:53;20.80;;;8.82;;
63005;SDS011;53704;52.532;6.426;2023-10-13T14:17:24;30.40;;;9.18;;
63005;SDS011;53704;52.532;6.426;2023-10-13T14:19:54;22.05;;;9.32;;
63005;SDS011;53704;52.532;6.426;2023-10-13T14:22:24;27.67;;;9.45;;
63005;SDS011;53704;52.532;6.426;2023-10-13T14:24:50;29.80;;;9.00;;
63005;SDS011;53704;52.532;6.426;2023-10-13T14:27:19;28.55;;;9.10;;
63005;SDS011;53704;52.532;6.426;2023-10-13T14:29:48;25.70;;;9.07;;
63005;SDS011;53704;52.532;6.426;2023-10-13T14:32:18;29.63;;;8.88;;
63005;SDS011;53704;52.532;6.426;2023-10-13T14:34:47;30.45;;;9.68;;
63005;SDS011;53704;52.532;6.426;2023-10-13T14:39:51;29.90;;;9.30;;
63005;SDS011;53704;52.532;6.426;2023-10-13T14:42:22;25.85;;;9.13;;
63005;SDS011;53704;52.532;6.426;2023-10-13T14:44:51;31.35;;;10.15;;
63005;SDS011;53704;52.532;6.426;2023-10-13T14:47:23;29.63;;;9.45;;
63005;SDS011;53704;52.532;6.426;2023-10-13T14:49:52;28.80;;;10.35;;
63005;SDS011;53704;52.532;6.426;2023-10-13T14:52:25;26.98;;;9.77;;
63005;SDS011;53704;52.532;6.426;2023-10-13T14:54:51;29.27;;;9.85;;
63005;SDS011;53704;52.532;6.426;2023-10-13T14:57:22;36.45;;;10.05;;
63005;SDS011;53704;52.532;6.426;2023-10-13T14:59:54;25.10;;;9.70;;
63005;SDS011;53704;52.532;6.426;2023-10-13T15:02:20;28.40;;;9.32;;
63005;SDS011;53704;52.532;6.426;2023-10-13T15:04:49;24.20;;;9.70;;
63005;SDS011;53704;52.532;6.426;2023-10-13T15:07:15;21.67;;;9.85;;
63005;SDS011;53704;52.532;6.426;2023-10-13T15:09:42;26.77;;;10.52;;
63005;SDS011;53704;52.532;6.426;2023-10-13T15:12:17;31.15;;;9.52;;
63005;SDS011;53704;52.532;6.426;2023-10-13T15:14:45;31.98;;;9.85;;
63005;SDS011;53704;52.532;6.426;2023-10-13T15:17:11;26.85;;;9.18;;
63005;SDS011;53704;52.532;6.426;2023-10-13T15:19:41;25.08;;;9.52;;
63005;SDS011;53704;52.532;6.426;2023-10-13T15:22:08;23.88;;;9.52;;
63005;SDS011;53704;52.532;6.426;2023-10-13T15:24:42;28.73;;;9.35;;
63005;SDS011;53704;52.532;6.426;2023-10-13T15:27:22;21.92;;;9.35;;
63005;SDS011;53704;52.532;6.426;2023-10-13T15:29:48;37.70;;;9.88;;
63005;SDS011;53704;52.532;6.426;2023-10-13T15:32:16;25.63;;;8.63;;
63005;SDS011;53704;52.532;6.426;2023-10-13T15:34:59;28.40;;;9.77;;
63005;SDS011;53704;52.532;6.426;2023-10-13T15:37:25;28.75;;;10.00;;
63005;SDS011;53704;52.532;6.426;2023-10-13T15:39:52;29.13;;;8.50;;
63005;SDS011;53704;52.532;6.426;2023-10-13T15:42:17;25.35;;;8.88;;
63005;SDS011;53704;52.532;6.426;2023-10-13T15:44:46;24.98;;;8.95;;
63005;SDS011;53704;52.532;6.426;2023-10-13T15:47:11;23.95;;;8.40;;
63005;SDS011;53704;52.532;6.426;2023-10-13T15:49:37;26.25;;;8.93;;
63005;SDS011;53704;52.532;6.426;2023-10-13T15:52:06;30.05;;;9.15;;
63005;SDS011;53704;52.532;6.426;2023-10-13T15:54:32;28.52;;;9.90;;
63005;SDS011;53704;52.532;6.426;2023-10-13T15:57:00;33.28;;;9.93;;
63005;SDS011;53704;52.532;6.426;2023-10-13T15:59:25;29.00;;;9.43;;
63005;SDS011;53704;52.532;6.426;2023-10-13T16:01:51;30.92;;;10.43;;
63005;SDS011;53704;52.532;6.426;2023-10-13T16:04:22;22.58;;;9.43;;
63005;SDS011;53704;52.532;6.426;2023-10-13T16:06:48;41.67;;;11.05;;
63005;SDS011;53704;52.532;6.426;2023-10-13T16:09:18;23.00;;;9.15;;
63005;SDS011;53704;52.532;6.426;2023-10-13T16:11:50;27.90;;;9.48;;
63005;SDS011;53704;52.532;6.426;2023-10-13T16:14:17;41.55;;;10.82;;
63005;SDS011;53704;52.532;6.426;2023-10-13T16:16:43;22.10;;;9.57;;
63005;SDS011;53704;52.532;6.426;2023-10-13T16:19:11;28.80;;;9.32;;
63005;SDS011;53704;52.532;6.426;2023-10-13T16:21:42;31.90;;;9.65;;
63005;SDS011;53704;52.532;6.426;2023-10-13T16:24:11;23.35;;;9.50;;
63005;SDS011;53704;52.532;6.426;2023-10-13T16:26:37;29.02;;;8.95;;
63005;SDS011;53704;52.532;6.426;2023-10-13T16:29:06;27.42;;;11.18;;
63005;SDS011;53704;52.532;6.426;2023-10-13T16:31:32;31.50;;;10.10;;